createdAt,value
2022-10-09T00:00:50.425Z,3.60
2022-10-09T00:03:18.308Z,3.77
2022-10-09T00:05:45.703Z,3.10
2022-10-09T00:08:12.653Z,3.47
2022-10-09T00:10:43.847Z,3.60
2022-10-09T00:13:11.519Z,3.97
2022-10-09T00:15:39.888Z,4.63
2022-10-09T00:18:08.026Z,4.07
2022-10-09T00:20:40.353Z,4.43
2022-10-09T00:23:07.172Z,3.67
2022-10-09T00:25:35.900Z,4.37
2022-10-09T00:28:04.397Z,3.60
2022-10-09T00:30:31.805Z,3.30
2022-10-09T00:32:58.496Z,3.77
2022-10-09T00:35:25.170Z,3.43
2022-10-09T00:37:51.917Z,3.00
2022-10-09T00:40:18.597Z,3.67
2022-10-09T00:42:45.779Z,3.47
2022-10-09T00:45:20.887Z,3.50
2022-10-09T00:47:51.514Z,4.03
2022-10-09T00:50:26.772Z,5.40
2022-10-09T00:53:00.768Z,4.07
2022-10-09T00:55:29.958Z,3.37
2022-10-09T00:57:59.002Z,3.97
2022-10-09T01:00:26.907Z,3.70
2022-10-09T01:02:54.556Z,3.90
2022-10-09T01:06:04.841Z,2.93
2022-10-09T01:08:37.018Z,2.93
2022-10-09T01:11:38.797Z,3.00
2022-10-09T01:14:16.018Z,2.90
2022-10-09T01:16:56.510Z,3.30
2022-10-09T01:19:32.477Z,3.13
2022-10-09T01:22:32.984Z,3.53
2022-10-09T01:25:08.175Z,3.30
2022-10-09T01:27:36.549Z,3.97
2022-10-09T01:30:10.615Z,4.07
2022-10-09T01:32:44.062Z,3.77
2022-10-09T01:35:12.333Z,4.10
2022-10-09T01:37:42.244Z,4.17
2022-10-09T01:40:10.884Z,4.07
2022-10-09T01:42:38.214Z,5.07
2022-10-09T01:45:05.323Z,5.33
2022-10-09T01:47:31.980Z,4.33
2022-10-09T01:50:05.103Z,4.23
2022-10-09T01:52:47.187Z,3.60
2022-10-09T01:55:39.934Z,4.40
2022-10-09T01:58:15.459Z,3.80
2022-10-09T02:01:00.891Z,3.00
2022-10-09T02:03:29.162Z,3.83
2022-10-09T02:05:57.001Z,4.10
2022-10-09T02:08:25.254Z,3.03
2022-10-09T02:10:56.480Z,3.10
2022-10-09T02:13:23.853Z,2.83
2022-10-09T02:15:56.853Z,3.63
2022-10-09T02:18:37.200Z,3.30
2022-10-09T02:21:14.276Z,3.40
2022-10-09T02:23:42.414Z,4.00
2022-10-09T02:26:10.135Z,3.60
2022-10-09T02:28:37.602Z,3.60
2022-10-09T02:31:17.361Z,3.40
2022-10-09T02:33:44.065Z,4.50
2022-10-09T02:36:11.177Z,3.90
2022-10-09T02:38:37.848Z,3.70
2022-10-09T02:41:04.692Z,3.83
2022-10-09T02:43:31.398Z,2.77
2022-10-09T02:45:58.202Z,3.00
2022-10-09T02:48:25.063Z,3.00
2022-10-09T02:50:51.810Z,2.77
2022-10-09T02:53:18.490Z,3.20
2022-10-09T02:55:45.885Z,3.57
2022-10-09T02:58:12.628Z,3.87
2022-10-09T03:00:39.398Z,4.20
2022-10-09T03:03:06.285Z,4.07
2022-10-09T03:05:33.087Z,4.00
2022-10-09T03:08:00.239Z,3.53
2022-10-09T03:10:26.915Z,4.20
2022-10-09T03:12:53.721Z,3.50
2022-10-09T03:15:20.404Z,3.73
2022-10-09T03:17:47.107Z,3.23
2022-10-09T03:20:13.800Z,3.83
2022-10-09T03:22:40.461Z,2.90
2022-10-09T03:25:07.764Z,3.30
2022-10-09T03:27:34.598Z,3.03
2022-10-09T03:30:01.360Z,3.07
2022-10-09T03:32:28.200Z,2.63
2022-10-09T03:34:54.905Z,3.13
2022-10-09T03:37:21.580Z,2.50
2022-10-09T03:39:48.319Z,2.80
2022-10-09T03:42:15.240Z,3.00
2022-10-09T03:44:41.910Z,2.53
2022-10-09T03:47:08.639Z,2.87
2022-10-09T03:49:35.393Z,2.33
2022-10-09T03:52:02.051Z,2.60
2022-10-09T03:54:28.772Z,2.60
2022-10-09T03:56:55.465Z,2.87
2022-10-09T03:59:22.141Z,2.47
2022-10-09T04:01:48.875Z,2.57
2022-10-09T04:04:15.873Z,2.73
2022-10-09T04:06:42.624Z,3.37
2022-10-09T04:09:09.410Z,2.97
2022-10-09T04:11:37.265Z,2.80
2022-10-09T04:14:04.293Z,2.70
2022-10-09T04:16:31.074Z,2.67
2022-10-09T04:18:57.857Z,2.80
2022-10-09T04:21:24.562Z,2.87
2022-10-09T04:23:51.538Z,2.57
2022-10-09T04:26:18.265Z,2.60
2022-10-09T04:28:45.099Z,3.30
2022-10-09T04:31:12.003Z,2.73
2022-10-09T04:33:38.796Z,3.20
2022-10-09T04:36:05.785Z,2.90
2022-10-09T04:38:32.481Z,3.23
2022-10-09T04:41:02.237Z,3.10
2022-10-09T04:43:29.410Z,2.83
2022-10-09T04:45:56.355Z,3.33
2022-10-09T04:48:23.363Z,3.03
2022-10-09T04:50:50.077Z,2.63
2022-10-09T04:53:16.845Z,3.30
2022-10-09T04:55:44.461Z,2.80
2022-10-09T04:58:12.463Z,3.00
2022-10-09T05:00:44.204Z,2.80
2022-10-09T05:03:11.983Z,2.43
2022-10-09T05:05:39.194Z,2.90
2022-10-09T05:08:06.158Z,3.03
2022-10-09T05:10:33.189Z,3.10
2022-10-09T05:13:00.340Z,2.63
2022-10-09T05:15:27.256Z,3.20
2022-10-09T05:17:54.004Z,2.90
2022-10-09T05:20:20.666Z,2.90
2022-10-09T05:22:48.457Z,2.70
2022-10-09T05:25:15.732Z,3.73
2022-10-09T05:27:45.689Z,4.23
2022-10-09T05:30:13.034Z,4.20
2022-10-09T05:32:41.337Z,3.97
2022-10-09T05:35:08.354Z,5.30
2022-10-09T05:37:35.052Z,5.37
2022-10-09T05:40:01.718Z,4.60
2022-10-09T05:42:28.429Z,4.43
2022-10-09T05:44:55.093Z,4.37
2022-10-09T05:47:21.774Z,4.17
2022-10-09T05:49:48.658Z,4.20
2022-10-09T05:52:15.343Z,4.50
2022-10-09T05:54:42.115Z,11.00
2022-10-09T05:57:09.360Z,13.20
2022-10-09T05:59:36.116Z,18.30
2022-10-09T06:02:03.995Z,17.43
2022-10-09T06:04:30.726Z,14.17
2022-10-09T06:06:57.445Z,9.80
2022-10-09T06:09:25.594Z,7.07
2022-10-09T06:11:54.157Z,6.23
2022-10-09T06:14:22.300Z,4.33
2022-10-09T06:16:49.841Z,4.27
2022-10-09T06:19:18.241Z,3.77
2022-10-09T06:21:45.525Z,3.57
2022-10-09T06:24:25.875Z,3.40
2022-10-09T06:26:55.353Z,4.17
2022-10-09T06:29:22.072Z,4.20
2022-10-09T06:31:48.830Z,5.10
2022-10-09T06:34:15.498Z,5.63
2022-10-09T06:36:42.307Z,4.70
2022-10-09T06:39:10.629Z,4.70
2022-10-09T06:41:37.317Z,3.73
2022-10-09T06:44:06.036Z,4.27
2022-10-09T06:46:39.029Z,4.73
2022-10-09T06:49:07.918Z,4.27
2022-10-09T06:51:35.649Z,4.10
2022-10-09T06:54:04.848Z,3.67
2022-10-09T06:56:32.141Z,3.90
2022-10-09T06:59:06.340Z,4.30
2022-10-09T07:01:33.708Z,4.00
2022-10-09T07:04:02.769Z,4.10
2022-10-09T07:06:33.650Z,3.70
2022-10-09T07:09:04.976Z,4.43
2022-10-09T07:11:34.955Z,3.67
2022-10-09T07:14:03.472Z,3.80
2022-10-09T07:16:33.261Z,3.70
2022-10-09T07:19:03.279Z,3.90
2022-10-09T07:21:30.356Z,4.00
2022-10-09T07:24:00.036Z,4.03
2022-10-09T07:26:28.821Z,3.40
2022-10-09T07:28:56.193Z,4.17
2022-10-09T07:31:25.581Z,3.87
2022-10-09T07:33:54.054Z,4.00
2022-10-09T07:36:21.194Z,4.13
2022-10-09T07:38:56.626Z,3.83
2022-10-09T07:41:25.438Z,4.33
2022-10-09T07:43:52.292Z,4.13
2022-10-09T07:46:20.600Z,3.90
2022-10-09T07:48:47.745Z,4.43
2022-10-09T07:51:26.250Z,3.50
2022-10-09T07:53:53.507Z,3.50
2022-10-09T07:56:26.031Z,3.33
2022-10-09T07:58:58.422Z,3.67
2022-10-09T08:01:27.991Z,3.30
2022-10-09T08:03:55.760Z,3.30
2022-10-09T08:06:22.973Z,4.17
2022-10-09T08:08:51.347Z,3.80
2022-10-09T08:11:20.365Z,4.87
2022-10-09T08:13:48.817Z,3.20
2022-10-09T08:16:16.727Z,3.23
2022-10-09T08:18:43.607Z,3.20
2022-10-09T08:21:18.960Z,2.70
2022-10-09T08:23:46.536Z,2.90
2022-10-09T08:26:18.744Z,3.13
2022-10-09T08:28:53.606Z,2.57
2022-10-09T08:31:21.367Z,2.67
2022-10-09T08:33:51.399Z,2.47
2022-10-09T08:36:18.062Z,2.43
2022-10-09T08:38:47.543Z,2.70
2022-10-09T08:41:32.396Z,3.43
2022-10-09T08:44:12.475Z,2.23
2022-10-09T08:47:00.986Z,2.73
2022-10-09T08:49:42.693Z,2.67
2022-10-09T08:52:15.050Z,2.17
2022-10-09T08:54:41.842Z,2.67
2022-10-09T08:57:15.872Z,2.47
2022-10-09T08:59:43.678Z,2.40
2022-10-09T09:02:19.120Z,2.30
2022-10-09T09:05:03.770Z,1.77
2022-10-09T09:07:41.236Z,2.30
2022-10-09T09:10:43.578Z,2.23
2022-10-09T09:13:28.880Z,2.60
2022-10-09T09:16:08.547Z,2.83
2022-10-09T09:18:52.535Z,2.27
2022-10-09T09:21:42.987Z,2.80
2022-10-09T09:24:17.825Z,2.20
2022-10-09T09:26:48.971Z,2.77
2022-10-09T09:29:20.736Z,2.00
2022-10-09T09:31:50.420Z,2.33
2022-10-09T09:34:36.772Z,2.43
2022-10-09T09:37:03.693Z,3.73
2022-10-09T09:42:20.787Z,2.30
2022-10-09T09:44:58.043Z,2.70
2022-10-09T09:47:33.553Z,2.00
2022-10-09T09:50:02.998Z,1.90
2022-10-09T09:52:36.477Z,2.00
2022-10-09T09:55:04.751Z,1.97
2022-10-09T09:57:40.868Z,1.93
2022-10-09T10:00:28.035Z,2.30
2022-10-09T10:03:14.243Z,2.17
2022-10-09T10:05:43.244Z,2.03
2022-10-09T10:08:21.189Z,2.93
2022-10-09T10:10:49.210Z,2.00
2022-10-09T10:13:19.161Z,1.90
2022-10-09T10:15:52.589Z,1.60
2022-10-09T10:18:22.113Z,1.60
2022-10-09T10:20:51.135Z,1.80
2022-10-09T10:23:32.496Z,1.57
2022-10-09T10:26:03.585Z,1.60
2022-10-09T10:28:37.572Z,2.37
2022-10-09T10:31:07.966Z,1.80
2022-10-09T10:33:37.349Z,1.70
2022-10-09T10:36:05.127Z,1.57
2022-10-09T10:38:38.856Z,2.10
2022-10-09T10:41:23.959Z,1.67
2022-10-09T10:44:15.429Z,1.90
2022-10-09T10:46:49.655Z,1.30
2022-10-09T10:49:20.770Z,1.45
2022-10-09T10:52:08.456Z,1.23
2022-10-09T10:54:50.979Z,1.08
2022-10-09T10:57:43.729Z,1.40
2022-10-09T11:00:12.830Z,1.17
2022-10-09T11:03:04.953Z,1.40
2022-10-09T11:06:03.654Z,1.13
2022-10-09T11:08:49.850Z,1.58
2022-10-09T11:11:25.454Z,1.63
2022-10-09T11:14:20.576Z,1.50
2022-10-09T11:16:59.183Z,1.70
2022-10-09T11:19:47.098Z,1.20
2022-10-09T11:22:44.193Z,1.27
2022-10-09T11:25:28.900Z,1.67
2022-10-09T11:28:06.736Z,1.25
2022-10-09T11:30:41.955Z,1.33
2022-10-09T11:33:36.887Z,1.40
2022-10-09T11:36:10.706Z,1.50
2022-10-09T11:38:41.809Z,1.15
2022-10-09T11:41:08.753Z,1.13
2022-10-09T11:44:05.446Z,1.08
2022-10-09T11:46:34.920Z,1.30
2022-10-09T11:49:13.930Z,1.40
2022-10-09T11:52:05.467Z,0.90
2022-10-09T11:54:33.542Z,1.48
2022-10-09T11:57:05.931Z,1.40
2022-10-09T11:59:36.501Z,1.15
2022-10-09T12:02:24.948Z,1.58
2022-10-09T12:04:55.879Z,1.20
2022-10-09T12:07:34.716Z,1.50
2022-10-09T12:10:21.476Z,1.00
2022-10-09T12:12:57.665Z,0.98
2022-10-09T12:15:38.835Z,1.15
2022-10-09T12:18:25.794Z,0.75
2022-10-09T12:20:55.519Z,0.80
2022-10-09T12:23:27.805Z,0.90
2022-10-09T12:25:56.765Z,1.05
2022-10-09T12:28:46.053Z,0.90
2022-10-09T12:31:29.793Z,0.85
2022-10-09T12:34:02.150Z,0.77
2022-10-09T12:36:31.387Z,1.00
2022-10-09T12:39:11.610Z,0.73
2022-10-09T12:41:38.646Z,0.70
2022-10-09T12:44:15.063Z,0.80
2022-10-09T12:46:41.812Z,0.80
2022-10-09T12:49:21.072Z,0.85
2022-10-09T12:51:56.062Z,1.17
2022-10-09T12:54:25.552Z,0.80
2022-10-09T12:56:54.519Z,1.35
2022-10-09T12:59:23.565Z,1.10
2022-10-09T13:01:55.868Z,1.20
2022-10-09T13:04:34.050Z,1.10
2022-10-09T13:07:06.667Z,0.90
2022-10-09T13:09:40.538Z,0.80
2022-10-09T13:12:15.850Z,1.02
2022-10-09T13:14:51.590Z,0.98
2022-10-09T13:17:41.075Z,1.33
2022-10-09T13:20:16.714Z,0.88
2022-10-09T13:22:57.742Z,1.05
2022-10-09T13:25:27.247Z,1.00
2022-10-09T13:27:54.356Z,0.80
2022-10-09T13:30:21.934Z,0.88
2022-10-09T13:32:48.959Z,1.40
2022-10-09T13:35:16.148Z,0.82
2022-10-09T13:37:42.823Z,1.10
2022-10-09T13:40:17.981Z,1.30
2022-10-09T13:42:57.775Z,1.08
2022-10-09T13:45:24.529Z,1.13
2022-10-09T13:47:51.882Z,0.82
2022-10-09T13:50:19.773Z,1.10
2022-10-09T13:52:46.787Z,1.20
2022-10-09T13:55:14.664Z,0.90
2022-10-09T13:57:41.813Z,1.08
2022-10-09T14:00:09.189Z,0.88
2022-10-09T14:02:36.892Z,1.20
2022-10-09T14:05:03.690Z,0.73
2022-10-09T14:07:30.948Z,0.80
2022-10-09T14:09:57.686Z,0.95
2022-10-09T14:12:24.371Z,1.00
2022-10-09T14:14:52.597Z,0.88
2022-10-09T14:17:19.416Z,1.30
2022-10-09T14:19:46.117Z,0.70
2022-10-09T14:22:13.533Z,1.52
2022-10-09T14:24:40.763Z,1.27
2022-10-09T14:27:07.418Z,0.90
2022-10-09T14:29:34.170Z,0.80
2022-10-09T14:32:00.837Z,0.98
2022-10-09T14:34:27.515Z,0.80
2022-10-09T14:36:54.326Z,0.90
2022-10-09T14:39:21.180Z,0.90
2022-10-09T14:41:48.179Z,0.95
2022-10-09T14:44:14.954Z,0.70
2022-10-09T14:46:41.658Z,1.15
2022-10-09T14:49:10.198Z,0.95
2022-10-09T14:51:38.511Z,1.08
2022-10-09T14:54:06.991Z,0.85
2022-10-09T14:56:33.805Z,0.70
2022-10-09T14:59:01.059Z,0.90
2022-10-09T15:01:29.443Z,1.25
2022-10-09T15:03:56.474Z,1.20
2022-10-09T15:06:27.647Z,1.50
2022-10-09T15:08:59.250Z,1.23
2022-10-09T15:11:29.760Z,0.90
2022-10-09T15:13:56.920Z,1.10
2022-10-09T15:16:24.318Z,1.33
2022-10-09T15:18:54.102Z,1.33
2022-10-09T15:21:29.996Z,3.05
2022-10-09T15:23:58.793Z,5.03
2022-10-09T15:26:27.240Z,7.87
2022-10-09T15:28:54.017Z,8.83
2022-10-09T15:31:25.151Z,7.05
2022-10-09T15:33:53.092Z,6.03
2022-10-09T15:36:20.824Z,3.22
2022-10-09T15:38:48.191Z,2.20
2022-10-09T15:41:27.305Z,2.37
2022-10-09T15:43:57.344Z,2.07
2022-10-09T15:46:24.897Z,2.20
2022-10-09T15:48:51.849Z,2.10
2022-10-09T15:51:19.455Z,1.93
2022-10-09T15:53:48.877Z,2.07
2022-10-09T15:56:18.674Z,2.30
2022-10-09T15:58:45.512Z,3.50
2022-10-09T16:01:14.333Z,6.17
2022-10-09T16:03:41.262Z,15.83
2022-10-09T16:06:10.466Z,22.40
2022-10-09T16:08:37.759Z,26.97
2022-10-09T16:11:10.284Z,35.27
2022-10-09T16:13:40.102Z,39.77
2022-10-09T16:16:09.378Z,40.90
2022-10-09T16:18:36.663Z,40.83
2022-10-09T16:21:06.264Z,42.00
2022-10-09T16:23:36.825Z,42.67
2022-10-09T16:26:04.752Z,42.33
2022-10-09T16:28:33.194Z,42.67
2022-10-09T16:31:00.389Z,39.83
2022-10-09T16:33:27.198Z,40.13
2022-10-09T16:35:54.357Z,41.80
2022-10-09T16:38:21.206Z,59.97
2022-10-09T16:41:01.264Z,75.43
2022-10-09T16:43:29.095Z,95.10
2022-10-09T16:45:55.778Z,99.13
2022-10-09T16:48:23.243Z,101.53
2022-10-09T16:50:50.344Z,103.70
2022-10-09T16:53:17.113Z,93.93
2022-10-09T16:55:43.842Z,86.73
2022-10-09T16:58:13.565Z,77.23
2022-10-09T17:00:40.263Z,71.70
2022-10-09T17:03:07.143Z,77.73
2022-10-09T17:05:38.959Z,83.37
2022-10-09T17:08:05.984Z,113.33
2022-10-09T17:10:32.643Z,119.03
2022-10-09T17:12:59.343Z,107.67
2022-10-09T17:15:26.797Z,91.97
2022-10-09T17:17:53.489Z,81.37
2022-10-09T17:20:22.579Z,78.67
2022-10-09T17:22:50.189Z,80.30
2022-10-09T17:25:17.806Z,79.87
2022-10-09T17:27:44.697Z,80.30
2022-10-09T17:30:12.042Z,102.47
2022-10-09T17:32:38.766Z,149.00
2022-10-09T17:35:06.265Z,147.50
2022-10-09T17:37:32.975Z,161.20
2022-10-09T17:39:59.667Z,161.33
2022-10-09T17:42:26.419Z,158.80
2022-10-09T17:44:53.105Z,150.97
2022-10-09T17:47:20.144Z,142.40
2022-10-09T17:49:46.881Z,135.10
2022-10-09T17:52:13.686Z,125.50
2022-10-09T17:54:40.375Z,115.40
2022-10-09T17:57:11.828Z,118.73
2022-10-09T17:59:39.216Z,114.40
2022-10-09T18:02:06.104Z,106.97
2022-10-09T18:04:32.780Z,92.67
2022-10-09T18:06:59.467Z,89.80
2022-10-09T18:09:26.565Z,82.20
2022-10-09T18:11:53.258Z,76.63
2022-10-09T18:14:20.178Z,79.13
2022-10-09T18:16:46.853Z,86.33
2022-10-09T18:19:18.342Z,84.53
2022-10-09T18:21:46.858Z,85.87
2022-10-09T18:24:14.166Z,95.50
2022-10-09T18:26:42.018Z,96.30
2022-10-09T18:29:08.810Z,83.63
2022-10-09T18:31:35.557Z,63.17
2022-10-09T18:34:02.255Z,59.97
2022-10-09T18:36:34.754Z,63.93
2022-10-09T18:39:05.575Z,62.87
2022-10-09T18:41:32.822Z,51.43
2022-10-09T18:44:01.405Z,39.73
2022-10-09T18:46:35.905Z,37.23
2022-10-09T18:49:03.319Z,29.37
2022-10-09T18:51:31.185Z,21.63
2022-10-09T18:54:01.561Z,17.60
2022-10-09T18:56:30.762Z,15.50
2022-10-09T18:58:59.126Z,14.70
2022-10-09T19:01:25.859Z,13.97
2022-10-09T19:03:53.196Z,13.63
2022-10-09T19:06:20.536Z,15.13
2022-10-09T19:08:47.775Z,16.50
2022-10-09T19:11:14.791Z,14.20
2022-10-09T19:13:43.555Z,13.97
2022-10-09T19:16:10.666Z,15.83
2022-10-09T19:18:37.953Z,15.20
2022-10-09T19:21:05.067Z,14.33
2022-10-09T19:23:31.802Z,16.17
2022-10-09T19:25:59.823Z,16.70
2022-10-09T19:28:31.000Z,15.93
2022-10-09T19:30:58.041Z,13.97
2022-10-09T19:33:24.855Z,13.70
2022-10-09T19:35:55.674Z,15.17
2022-10-09T19:38:23.391Z,15.57
2022-10-09T19:40:50.517Z,13.83
2022-10-09T19:43:19.123Z,13.53
2022-10-09T19:45:48.826Z,12.67
2022-10-09T19:48:17.185Z,11.80
2022-10-09T19:50:45.446Z,11.73
2022-10-09T19:53:13.479Z,13.60
2022-10-09T19:55:40.278Z,14.43
2022-10-09T19:58:07.010Z,13.73
2022-10-09T20:00:33.769Z,14.00
2022-10-09T20:03:00.434Z,13.17
2022-10-09T20:05:27.131Z,14.20
2022-10-09T20:07:53.792Z,13.67
2022-10-09T20:10:20.562Z,14.60
2022-10-09T20:12:47.541Z,15.10
2022-10-09T20:15:14.515Z,13.90
2022-10-09T20:17:41.269Z,15.47
2022-10-09T20:20:08.328Z,16.13
2022-10-09T20:22:34.974Z,15.90
2022-10-09T20:25:01.700Z,16.57
2022-10-09T20:27:29.989Z,17.77
2022-10-09T20:29:56.667Z,17.47
2022-10-09T20:32:24.987Z,17.20
2022-10-09T20:34:52.032Z,17.07
2022-10-09T20:37:18.756Z,17.60
2022-10-09T20:39:45.532Z,16.83
2022-10-09T20:42:12.217Z,15.43
2022-10-09T20:44:38.877Z,15.13
2022-10-09T20:47:05.622Z,15.00
2022-10-09T20:49:32.278Z,13.07
2022-10-09T20:51:58.920Z,13.10
2022-10-09T20:54:26.006Z,12.10
2022-10-09T20:56:52.714Z,12.93
2022-10-09T20:59:19.440Z,11.27
2022-10-09T21:01:46.544Z,11.20
2022-10-09T21:04:14.728Z,11.40
2022-10-09T21:06:41.699Z,11.20
2022-10-09T21:09:09.021Z,10.53
2022-10-09T21:11:35.991Z,10.83
2022-10-09T21:14:03.237Z,10.93
2022-10-09T21:16:29.936Z,11.17
2022-10-09T21:18:59.371Z,10.13
2022-10-09T21:21:26.671Z,10.87
2022-10-09T21:23:55.228Z,9.93
2022-10-09T21:26:23.187Z,10.40
2022-10-09T21:28:53.250Z,10.80
2022-10-09T21:31:26.101Z,10.27
2022-10-09T21:33:53.099Z,10.53
2022-10-09T21:36:30.726Z,10.10
2022-10-09T21:38:57.506Z,9.53
2022-10-09T21:41:24.421Z,10.03
2022-10-09T21:43:51.281Z,9.83
2022-10-09T21:46:17.981Z,10.70
2022-10-09T21:48:44.884Z,9.73
2022-10-09T21:51:11.589Z,9.47
2022-10-09T21:53:38.469Z,8.90
2022-10-09T21:56:06.071Z,9.60
2022-10-09T21:58:32.948Z,8.90
2022-10-09T22:01:01.526Z,9.47
2022-10-09T22:03:30.566Z,9.03
2022-10-09T22:05:57.320Z,8.83
2022-10-09T22:08:24.219Z,9.10
2022-10-09T22:10:51.372Z,8.77
2022-10-09T22:13:20.220Z,9.70
2022-10-09T22:15:50.903Z,9.77
2022-10-09T22:18:18.388Z,11.83
2022-10-09T22:20:47.846Z,10.67
2022-10-09T22:23:15.199Z,9.77
2022-10-09T22:25:41.890Z,9.27
2022-10-09T22:28:08.691Z,9.63
2022-10-09T22:30:35.763Z,9.70
2022-10-09T22:33:02.498Z,9.77
2022-10-09T22:35:29.175Z,9.93
2022-10-09T22:37:57.339Z,8.40
2022-10-09T22:40:24.288Z,10.20
2022-10-09T22:42:51.216Z,8.60
2022-10-09T22:45:18.099Z,9.37
2022-10-09T22:47:47.759Z,8.33
2022-10-09T22:50:14.541Z,7.97
2022-10-09T22:52:41.193Z,7.87
2022-10-09T22:55:08.374Z,8.97
2022-10-09T22:57:35.084Z,8.37
2022-10-09T23:00:01.758Z,8.40
2022-10-09T23:02:28.638Z,8.60
2022-10-09T23:04:55.288Z,9.03
2022-10-09T23:07:21.971Z,8.87
2022-10-09T23:09:48.669Z,8.53
2022-10-09T23:12:15.979Z,8.17
2022-10-09T23:14:42.895Z,8.47
2022-10-09T23:17:09.576Z,9.23
2022-10-09T23:19:36.307Z,9.03
2022-10-09T23:22:03.018Z,9.83
2022-10-09T23:24:29.714Z,9.57
2022-10-09T23:26:56.823Z,8.83
2022-10-09T23:29:23.538Z,9.07
2022-10-09T23:31:52.582Z,10.10
2022-10-09T23:34:19.348Z,9.77
2022-10-09T23:36:46.089Z,10.37
2022-10-09T23:39:13.148Z,10.07
2022-10-09T23:41:39.908Z,9.70
2022-10-09T23:44:06.622Z,9.90
2022-10-09T23:46:33.969Z,9.37
2022-10-09T23:49:01.336Z,9.40
2022-10-09T23:51:29.190Z,9.07
2022-10-09T23:53:57.122Z,8.83
2022-10-09T23:56:34.997Z,9.33
2022-10-09T23:59:03.066Z,9.30
